Time;durP1;ratioP1;P1;durP2;ratioP2;P2;SDS_P1;SDS_P2;PMS_P1;PMS_P2;Temp;Humidity;BMP_temperature;BMP_pressure;BME280_temperature;BME280_humidity;BME280_pressure;Samples;Min_cycle;Max_cycle;Signal;HPM_P1;HPM_P2
2021/09/26 00:01:21;;;;;;;28.45;17.33;;;13.20;99.90;;;;;;5012372;28;20542;-86
2021/09/26 00:03:47;;;;;;;29.60;19.23;;;13.20;99.90;;;;;;5012580;28;20095;-86
2021/09/26 00:06:13;;;;;;;31.58;19.20;;;13.20;99.90;;;;;;5003099;28;20038;-86
2021/09/26 00:08:38;;;;;;;31.08;19.10;;;13.20;99.90;;;;;;5010138;28;20025;-86
2021/09/26 00:11:07;;;;;;;27.38;17.95;;;13.20;99.90;;;;;;5011339;28;20093;-87
2021/09/26 00:13:39;;;;;;;30.88;17.85;;;13.20;99.90;;;;;;5010515;28;20462;-86
2021/09/26 00:16:06;;;;;;;33.05;17.38;;;13.20;99.90;;;;;;5010787;28;20049;-87
2021/09/26 00:18:32;;;;;;;31.95;18.67;;;13.20;99.90;;;;;;5011265;28;20536;-86
2021/09/26 00:20:58;;;;;;;33.70;20.27;;;13.20;99.90;;;;;;5012831;28;20034;-86
2021/09/26 00:23:25;;;;;;;36.33;21.67;;;13.20;99.90;;;;;;5007975;28;20026;-84
2021/09/26 00:25:55;;;;;;;32.10;19.70;;;13.20;99.90;;;;;;5011772;28;20037;-84
2021/09/26 00:28:21;;;;;;;37.45;22.00;;;13.20;99.90;;;;;;5012757;28;20034;-86
2021/09/26 00:30:48;;;;;;;33.22;19.58;;;13.20;99.90;;;;;;5011049;28;20041;-86
2021/09/26 00:33:13;;;;;;;34.45;19.30;;;13.20;99.90;;;;;;5012019;28;20075;-84
2021/09/26 00:35:39;;;;;;;32.65;17.95;;;13.20;99.90;;;;;;5011662;28;20441;-86
2021/09/26 00:38:05;;;;;;;30.73;17.73;;;13.20;99.90;;;;;;5008059;28;20022;-86
2021/09/26 00:40:32;;;;;;;26.23;15.32;;;13.20;99.90;;;;;;5009483;28;20030;-86
2021/09/26 00:42:57;;;;;;;26.70;16.40;;;13.10;99.90;;;;;;5012702;28;20137;-86
2021/09/26 00:45:23;;;;;;;31.65;17.55;;;13.10;99.90;;;;;;5009900;28;20512;-86
2021/09/26 00:47:49;;;;;;;30.60;17.02;;;13.10;99.90;;;;;;5028176;28;20172;-86
2021/09/26 00:50:16;;;;;;;26.80;17.60;;;13.00;99.90;;;;;;5010687;28;20072;-87
2021/09/26 00:52:45;;;;;;;30.90;17.52;;;13.00;99.90;;;;;;5011513;28;20040;-87
2021/09/26 00:55:12;;;;;;;30.10;17.95;;;13.00;99.90;;;;;;5009425;28;20041;-86
2021/09/26 00:57:41;;;;;;;31.05;19.27;;;13.00;99.90;;;;;;5012463;28;20030;-86
2021/09/26 01:00:08;;;;;;;31.63;19.95;;;13.00;99.90;;;;;;5010373;28;20053;-86
2021/09/26 01:02:33;;;;;;;39.60;20.90;;;13.00;99.90;;;;;;5013331;28;20022;-87
2021/09/26 01:05:00;;;;;;;38.13;21.27;;;13.00;99.90;;;;;;5013332;28;20080;-87
2021/09/26 01:07:34;;;;;;;40.95;21.63;;;13.00;99.90;;;;;;5011469;28;20038;-87
2021/09/26 01:10:25;;;;;;;37.75;21.45;;;13.10;99.90;;;;;;5003952;28;20030;-85
2021/09/26 01:13:23;;;;;;;37.30;20.75;;;13.00;99.90;;;;;;5011397;28;20030;-87
2021/09/26 01:15:55;;;;;;;37.55;21.35;;;13.00;99.90;;;;;;4997854;28;20038;-87
2021/09/26 01:19:19;;;;;;;36.63;21.63;;;13.00;99.90;;;;;;5017147;28;20033;-86
2021/09/26 01:22:11;;;;;;;35.95;20.65;;;13.00;99.90;;;;;;4993767;28;20029;-86
2021/09/26 01:24:58;;;;;;;35.37;20.93;;;13.00;99.90;;;;;;5021690;28;20147;-87
2021/09/26 01:27:42;;;;;;;33.70;20.15;;;13.00;99.90;;;;;;5008986;28;20037;-87
2021/09/26 01:30:20;;;;;;;38.60;21.45;;;13.00;99.90;;;;;;5029778;28;20033;-87
2021/09/26 01:32:55;;;;;;;38.53;21.60;;;13.00;99.90;;;;;;5012049;28;20567;-86
2021/09/26 01:35:23;;;;;;;37.13;17.90;;;13.00;99.90;;;;;;5011517;28;20498;-87
2021/09/26 01:38:00;;;;;;;33.42;19.60;;;13.00;99.90;;;;;;5011011;28;20034;-87
2021/09/26 01:40:32;;;;;;;34.83;20.52;;;12.90;99.90;;;;;;5011380;28;20034;-87
2021/09/26 01:43:06;;;;;;;30.42;18.25;;;12.90;99.90;;;;;;5012400;28;20033;-87
2021/09/26 01:45:51;;;;;;;30.83;18.75;;;12.80;99.90;;;;;;5015819;28;20041;-86
2021/09/26 01:48:33;;;;;;;23.83;15.35;;;12.80;99.90;;;;;;5015517;28;20120;-87
2021/09/26 01:50:59;;;;;;;32.23;18.07;;;12.70;99.90;;;;;;4996991;28;20033;-86
2021/09/26 01:53:26;;;;;;;35.00;18.80;;;12.70;99.90;;;;;;5008229;28;20781;-87
2021/09/26 01:55:53;;;;;;;33.25;21.02;;;12.70;99.90;;;;;;5014343;28;20052;-86
2021/09/26 01:58:20;;;;;;;34.40;20.75;;;12.70;99.90;;;;;;5022473;28;20041;-86
2021/09/26 02:00:47;;;;;;;43.42;23.92;;;12.70;99.90;;;;;;5015762;28;20277;-86
2021/09/26 02:03:14;;;;;;;44.58;22.42;;;12.70;99.90;;;;;;5015241;28;20109;-86
2021/09/26 02:05:41;;;;;;;41.15;23.83;;;12.80;99.90;;;;;;5015120;28;20065;-86
2021/09/26 02:08:07;;;;;;;41.05;24.00;;;12.80;99.90;;;;;;5015358;28;20128;-86
2021/09/26 02:10:34;;;;;;;40.22;22.90;;;12.90;99.90;;;;;;5016395;28;20029;-86
2021/09/26 02:13:02;;;;;;;43.63;23.70;;;12.90;99.90;;;;;;5014649;28;20120;-87
2021/09/26 02:15:28;;;;;;;44.53;25.33;;;13.00;99.90;;;;;;5013310;28;20026;-87
2021/09/26 02:17:55;;;;;;;42.70;23.73;;;13.00;99.90;;;;;;5014954;28;20076;-87
2021/09/26 02:20:21;;;;;;;40.25;22.65;;;13.00;99.90;;;;;;4997393;28;20065;-87
2021/09/26 02:22:49;;;;;;;38.50;23.40;;;13.00;99.90;;;;;;5011549;28;20061;-87
2021/09/26 02:25:18;;;;;;;41.95;22.83;;;13.00;99.90;;;;;;5001159;28;20100;-86
2021/09/26 02:27:44;;;;;;;39.15;23.63;;;13.00;99.90;;;;;;5014666;28;20032;-87
2021/09/26 02:30:12;;;;;;;38.72;23.13;;;13.00;99.90;;;;;;5014292;28;20125;-86
2021/09/26 02:32:38;;;;;;;47.63;23.17;;;13.00;99.90;;;;;;5007750;28;20121;-87
2021/09/26 02:35:06;;;;;;;38.35;23.02;;;13.00;99.90;;;;;;5012878;28;20505;-87
2021/09/26 02:37:32;;;;;;;37.95;21.80;;;13.00;99.90;;;;;;5008525;28;20061;-86
2021/09/26 02:39:58;;;;;;;40.30;22.45;;;13.00;99.90;;;;;;5013419;28;20065;-86
2021/09/26 02:42:42;;;;;;;35.83;22.02;;;13.00;99.90;;;;;;5013684;28;20026;-86
2021/09/26 02:45:24;;;;;;;34.28;21.80;;;13.00;99.90;;;;;;5015261;28;20030;-87
2021/09/26 02:48:00;;;;;;;38.33;21.90;;;13.00;99.90;;;;;;5014161;28;20028;-88
2021/09/26 02:50:26;;;;;;;39.30;23.27;;;13.00;99.90;;;;;;5013911;28;20030;-87
2021/09/26 02:52:52;;;;;;;41.70;23.67;;;13.00;99.90;;;;;;5015548;28;20036;-86
2021/09/26 02:55:18;;;;;;;39.90;23.38;;;13.00;99.90;;;;;;5011911;28;20026;-86
2021/09/26 02:57:45;;;;;;;40.10;24.10;;;13.10;99.90;;;;;;5014541;28;20045;-86
2021/09/26 03:00:12;;;;;;;42.08;23.40;;;13.10;99.90;;;;;;5014586;28;20109;-86
2021/09/26 03:02:38;;;;;;;36.88;23.23;;;13.20;99.90;;;;;;5014103;28;20014;-86
2021/09/26 03:05:06;;;;;;;38.55;22.63;;;13.20;99.90;;;;;;5012946;28;20052;-86
2021/09/26 03:07:31;;;;;;;39.38;24.15;;;13.30;99.90;;;;;;5014550;28;20432;-86
2021/09/26 03:09:57;;;;;;;31.52;18.92;;;13.30;99.90;;;;;;5011112;28;20072;-87
2021/09/26 03:12:23;;;;;;;29.27;18.65;;;13.40;99.90;;;;;;5010782;28;20148;-86
2021/09/26 03:14:52;;;;;;;30.25;18.20;;;13.30;99.90;;;;;;5013345;28;20425;-86
2021/09/26 03:17:18;;;;;;;26.50;17.42;;;13.20;99.90;;;;;;5013079;28;20092;-87
2021/09/26 03:19:45;;;;;;;36.92;19.92;;;13.20;99.90;;;;;;5012921;28;20030;-87
2021/09/26 03:22:11;;;;;;;32.85;19.83;;;13.20;99.90;;;;;;5013558;28;20040;-86
2021/09/26 03:24:39;;;;;;;34.85;21.23;;;13.30;99.90;;;;;;5012145;28;20037;-87
2021/09/26 03:27:09;;;;;;;37.97;22.08;;;13.30;99.90;;;;;;5012709;28;20022;-87
2021/09/26 03:29:37;;;;;;;42.47;22.40;;;13.40;99.90;;;;;;5013360;28;20021;-87
2021/09/26 03:32:03;;;;;;;34.70;21.98;;;13.40;99.90;;;;;;5004957;28;20038;-87
2021/09/26 03:34:29;;;;;;;39.08;22.80;;;13.50;99.90;;;;;;5010098;28;20413;-87
2021/09/26 03:36:54;;;;;;;36.75;22.83;;;13.50;99.90;;;;;;5013573;28;20030;-87
2021/09/26 03:39:20;;;;;;;33.58;21.80;;;13.50;99.90;;;;;;5009003;28;20519;-86
2021/09/26 03:41:45;;;;;;;33.83;21.80;;;13.50;99.90;;;;;;5016010;28;20108;-87
2021/09/26 03:44:11;;;;;;;37.53;22.23;;;13.50;99.90;;;;;;5012532;28;20033;-87
2021/09/26 03:46:37;;;;;;;37.38;23.20;;;13.50;99.90;;;;;;5012930;28;20032;-86
2021/09/26 03:49:03;;;;;;;37.78;22.63;;;13.50;99.90;;;;;;5011730;28;20061;-86
2021/09/26 03:51:28;;;;;;;36.42;21.98;;;13.60;99.90;;;;;;5013314;28;20040;-86
2021/09/26 03:53:54;;;;;;;36.20;22.73;;;13.60;99.90;;;;;;5012413;28;20109;-87
2021/09/26 03:56:19;;;;;;;39.85;22.75;;;13.60;99.90;;;;;;5013057;28;20045;-87
2021/09/26 03:58:45;;;;;;;38.40;23.15;;;13.60;99.90;;;;;;5011164;28;20116;-86
2021/09/26 04:01:11;;;;;;;41.90;23.60;;;13.60;99.90;;;;;;5014262;28;20033;-86
2021/09/26 04:03:37;;;;;;;34.45;21.88;;;13.60;99.90;;;;;;5026527;28;20033;-86
2021/09/26 04:06:06;;;;;;;39.03;23.95;;;13.70;99.90;;;;;;5010436;28;20037;-87
2021/09/26 04:08:32;;;;;;;33.83;22.25;;;13.70;99.90;;;;;;5012660;28;20022;-86
2021/09/26 04:10:57;;;;;;;36.13;21.75;;;13.70;99.90;;;;;;5009841;28;20034;-87
2021/09/26 04:13:23;;;;;;;33.67;22.35;;;13.70;99.90;;;;;;5011516;28;20022;-86
2021/09/26 04:15:48;;;;;;;36.20;22.00;;;13.70;99.90;;;;;;5011542;28;20033;-87
2021/09/26 04:18:14;;;;;;;35.50;22.45;;;13.80;99.90;;;;;;5011219;28;20141;-87
2021/09/26 04:20:39;;;;;;;35.15;21.63;;;13.80;99.90;;;;;;5012548;28;20030;-87
2021/09/26 04:23:05;;;;;;;34.72;21.88;;;13.80;99.90;;;;;;5010737;28;20469;-87
2021/09/26 04:25:30;;;;;;;32.15;21.42;;;13.90;99.90;;;;;;5010427;28;20053;-87
2021/09/26 04:27:58;;;;;;;36.90;22.48;;;13.90;99.90;;;;;;5013309;28;20524;-87
2021/09/26 04:30:24;;;;;;;41.60;24.75;;;13.90;99.90;;;;;;5012446;28;20488;-87
2021/09/26 04:32:50;;;;;;;36.08;22.60;;;14.00;99.90;;;;;;5008535;28;20034;-87
2021/09/26 04:35:15;;;;;;;35.08;21.95;;;14.00;99.90;;;;;;5014141;28;20465;-87
2021/09/26 04:37:41;;;;;;;35.95;23.13;;;14.00;99.90;;;;;;5012215;28;20470;-87
2021/09/26 04:40:07;;;;;;;34.63;21.85;;;14.10;99.90;;;;;;5007962;28;20037;-87
2021/09/26 04:42:33;;;;;;;33.38;21.70;;;14.10;99.90;;;;;;5010936;28;20071;-88
2021/09/26 04:44:59;;;;;;;34.28;22.35;;;14.20;99.90;;;;;;5011714;28;20082;-87
2021/09/26 04:47:25;;;;;;;37.10;23.05;;;14.20;99.90;;;;;;5025676;28;20029;-87
2021/09/26 04:49:50;;;;;;;34.85;22.70;;;14.20;99.90;;;;;;5010166;28;20401;-85
2021/09/26 04:52:16;;;;;;;33.13;22.15;;;14.20;99.90;;;;;;5010306;28;20149;-87
2021/09/26 04:54:42;;;;;;;34.40;23.40;;;14.30;99.90;;;;;;5011901;28;20026;-87
2021/09/26 04:57:07;;;;;;;37.78;23.08;;;14.30;99.90;;;;;;5012827;28;20482;-87
2021/09/26 04:59:33;;;;;;;33.22;22.25;;;14.40;99.90;;;;;;5013068;28;20030;-87
2021/09/26 05:01:59;;;;;;;30.75;20.45;;;14.40;99.90;;;;;;5012449;28;20022;-86
2021/09/26 05:04:25;;;;;;;29.05;20.13;;;14.40;99.90;;;;;;5011509;28;20030;-87
2021/09/26 05:06:50;;;;;;;28.88;20.30;;;14.50;99.90;;;;;;5012732;28;20076;-85
2021/09/26 05:09:16;;;;;;;30.02;19.75;;;14.50;99.90;;;;;;5010689;28;20025;-86
2021/09/26 05:11:41;;;;;;;29.70;19.85;;;14.60;99.90;;;;;;5009861;28;20038;-86
2021/09/26 05:14:07;;;;;;;28.60;20.27;;;14.60;99.90;;;;;;5011046;28;20022;-86
2021/09/26 05:16:32;;;;;;;27.95;19.92;;;14.70;99.90;;;;;;5011944;28;20025;-87
2021/09/26 05:18:58;;;;;;;26.10;18.73;;;14.60;99.90;;;;;;5030655;28;20497;-88
2021/09/26 05:21:24;;;;;;;27.30;18.90;;;14.70;99.90;;;;;;5016074;28;20021;-87
2021/09/26 05:23:49;;;;;;;28.05;19.48;;;14.70;99.90;;;;;;5014579;28;20034;-86
2021/09/26 05:26:16;;;;;;;28.80;20.00;;;14.80;99.90;;;;;;5014393;28;20116;-86
2021/09/26 05:28:42;;;;;;;31.45;19.98;;;14.80;99.90;;;;;;5014632;28;20121;-86
2021/09/26 05:31:08;;;;;;;30.52;21.13;;;14.80;99.90;;;;;;5014253;28;20057;-86
2021/09/26 05:33:33;;;;;;;28.05;19.83;;;14.80;99.90;;;;;;5009616;28;20037;-87
2021/09/26 05:35:59;;;;;;;30.65;20.92;;;14.80;99.90;;;;;;5013036;28;20056;-87
2021/09/26 05:38:25;;;;;;;28.77;20.35;;;14.80;99.90;;;;;;5014088;28;20026;-86
2021/09/26 05:40:51;;;;;;;32.08;21.52;;;14.80;99.90;;;;;;5014990;28;20037;-86
2021/09/26 05:43:16;;;;;;;29.80;21.13;;;14.90;99.90;;;;;;5011470;28;20050;-86
2021/09/26 05:45:42;;;;;;;32.20;21.38;;;14.80;99.90;;;;;;5026515;28;20034;-86
2021/09/26 05:48:07;;;;;;;34.25;22.30;;;14.80;99.90;;;;;;5012787;28;20080;-86
2021/09/26 05:50:33;;;;;;;30.42;21.92;;;14.90;99.90;;;;;;5014808;28;20117;-86
2021/09/26 05:52:58;;;;;;;34.25;22.17;;;14.90;99.90;;;;;;5015576;28;20030;-86
2021/09/26 05:55:24;;;;;;;31.70;21.88;;;14.90;99.90;;;;;;5014332;28;20025;-86
2021/09/26 05:57:50;;;;;;;35.88;23.60;;;14.90;99.90;;;;;;5017050;28;20030;-86
2021/09/26 06:00:17;;;;;;;31.02;22.83;;;14.90;99.90;;;;;;5013332;28;20030;-86
2021/09/26 06:02:44;;;;;;;30.25;20.90;;;15.00;99.90;;;;;;5027000;28;20018;-86
2021/09/26 06:05:11;;;;;;;30.00;22.08;;;15.00;99.90;;;;;;5014459;28;20038;-86
2021/09/26 06:07:37;;;;;;;34.42;22.23;;;15.00;99.90;;;;;;4999089;28;20040;-86
2021/09/26 06:10:04;;;;;;;31.33;22.20;;;15.10;99.90;;;;;;5013905;28;20113;-86
2021/09/26 06:12:29;;;;;;;35.03;22.65;;;15.10;99.90;;;;;;5015163;28;20467;-86
2021/09/26 06:14:57;;;;;;;33.88;23.30;;;15.10;99.90;;;;;;5015806;28;20097;-88
2021/09/26 06:17:22;;;;;;;29.90;22.52;;;15.10;99.90;;;;;;5014302;28;20092;-86
2021/09/26 06:19:51;;;;;;;33.20;22.42;;;15.10;99.90;;;;;;5006340;28;20022;-86
2021/09/26 06:22:17;;;;;;;30.73;23.00;;;15.10;99.90;;;;;;5001209;28;20021;-87
2021/09/26 06:24:44;;;;;;;35.20;23.38;;;15.10;99.90;;;;;;5016221;28;20473;-86
2021/09/26 06:27:09;;;;;;;35.42;23.95;;;15.10;99.90;;;;;;5014351;28;20026;-86
2021/09/26 06:29:35;;;;;;;30.05;22.63;;;15.20;99.90;;;;;;5009493;28;20033;-87
2021/09/26 06:32:00;;;;;;;30.30;22.75;;;15.20;99.90;;;;;;5016507;28;20026;-86
2021/09/26 06:34:26;;;;;;;35.50;23.40;;;15.20;99.90;;;;;;5013279;28;20044;-86
2021/09/26 06:36:51;;;;;;;35.15;23.77;;;15.20;99.90;;;;;;5002654;28;20084;-87
2021/09/26 06:39:17;;;;;;;29.23;21.77;;;15.20;99.90;;;;;;5016111;28;20044;-87
2021/09/26 06:41:42;;;;;;;32.20;23.35;;;15.30;99.90;;;;;;5015124;28;20018;-86
2021/09/26 06:44:08;;;;;;;30.77;22.63;;;15.30;99.90;;;;;;5013144;28;20022;-86
2021/09/26 06:46:33;;;;;;;31.67;23.00;;;15.30;99.90;;;;;;5011965;28;20049;-86
2021/09/26 06:48:59;;;;;;;30.50;22.98;;;15.40;99.90;;;;;;5008457;28;20034;-86
2021/09/26 06:51:24;;;;;;;33.40;23.17;;;15.40;99.90;;;;;;5013382;28;20081;-89
2021/09/26 06:53:50;;;;;;;33.05;23.58;;;15.50;99.90;;;;;;5015680;28;20120;-89
2021/09/26 06:56:15;;;;;;;31.05;22.35;;;15.50;99.90;;;;;;5014695;28;20526;-89
2021/09/26 06:58:41;;;;;;;31.00;22.85;;;15.60;99.90;;;;;;5015842;28;20053;-89
2021/09/26 07:01:08;;;;;;;31.73;23.55;;;15.60;99.90;;;;;;5013783;28;20431;-88
2021/09/26 07:03:33;;;;;;;38.35;24.10;;;15.70;99.90;;;;;;5016665;28;20497;-89
2021/09/26 07:05:59;;;;;;;33.55;22.02;;;15.70;99.90;;;;;;5016685;28;20046;-89
2021/09/26 07:08:25;;;;;;;32.75;23.08;;;15.80;99.90;;;;;;5014786;28;20033;-88
2021/09/26 07:10:50;;;;;;;34.53;23.90;;;15.80;99.90;;;;;;5014209;28;20033;-88
2021/09/26 07:13:16;;;;;;;32.67;22.33;;;15.80;99.90;;;;;;5015800;28;20025;-88
2021/09/26 07:15:41;;;;;;;32.55;22.98;;;15.90;99.90;;;;;;5011212;28;20177;-88
2021/09/26 07:18:07;;;;;;;29.27;23.45;;;15.90;99.90;;;;;;5010459;28;20032;-88
2021/09/26 07:20:33;;;;;;;30.92;24.17;;;15.90;99.90;;;;;;5013532;28;20029;-87
2021/09/26 07:23:00;;;;;;;33.35;24.48;;;15.90;99.90;;;;;;5014523;28;20368;-88
2021/09/26 07:25:27;;;;;;;28.23;23.67;;;15.90;99.90;;;;;;5013831;28;20037;-88
2021/09/26 07:27:53;;;;;;;31.40;23.75;;;15.90;99.90;;;;;;5015985;28;20471;-87
2021/09/26 07:30:19;;;;;;;30.42;24.38;;;15.90;99.90;;;;;;5014482;28;20420;-88
2021/09/26 07:32:45;;;;;;;28.50;22.23;;;15.90;99.90;;;;;;5031494;28;20465;-88
2021/09/26 07:35:11;;;;;;;26.52;22.80;;;16.00;99.90;;;;;;5012566;28;20045;-88
2021/09/26 07:37:37;;;;;;;34.53;23.58;;;16.00;99.90;;;;;;5016144;28;20022;-87
2021/09/26 07:40:04;;;;;;;27.75;21.75;;;16.10;99.90;;;;;;5014352;28;20061;-88
2021/09/26 07:42:30;;;;;;;28.05;22.00;;;16.10;99.90;;;;;;5012947;28;20061;-88
2021/09/26 07:45:03;;;;;;;33.17;24.45;;;16.20;99.90;;;;;;5010671;28;20061;-86
2021/09/26 07:47:29;;;;;;;28.10;23.88;;;16.20;99.90;;;;;;5011005;28;20418;-86
2021/09/26 07:49:55;;;;;;;34.17;25.63;;;16.30;99.90;;;;;;5012248;28;20025;-86
2021/09/26 07:52:21;;;;;;;30.45;24.20;;;16.40;99.90;;;;;;5010675;28;20037;-87
2021/09/26 07:54:47;;;;;;;32.58;25.42;;;16.50;99.90;;;;;;5014845;28;20076;-86
2021/09/26 07:57:12;;;;;;;30.67;24.75;;;16.70;99.90;;;;;;5013958;28;20449;-86
2021/09/26 07:59:40;;;;;;;31.90;23.70;;;16.90;99.90;;;;;;5013632;28;20132;-86
2021/09/26 08:02:06;;;;;;;29.55;22.98;;;17.00;99.90;;;;;;5014435;28;20052;-86
2021/09/26 08:04:32;;;;;;;29.73;23.50;;;17.10;99.90;;;;;;5013706;28;20458;-86
2021/09/26 08:06:57;;;;;;;29.27;24.83;;;17.30;99.90;;;;;;5011332;28;20033;-86
2021/09/26 08:09:23;;;;;;;28.02;23.50;;;17.40;99.90;;;;;;5009482;28;20029;-85
2021/09/26 08:11:49;;;;;;;26.90;22.80;;;17.60;99.90;;;;;;5014998;28;20101;-85
2021/09/26 08:14:14;;;;;;;28.65;22.50;;;17.60;99.90;;;;;;5012355;28;20453;-85
2021/09/26 08:16:40;;;;;;;28.10;22.55;;;17.70;99.90;;;;;;5010578;28;20061;-85
2021/09/26 08:19:05;;;;;;;25.35;22.10;;;17.80;99.90;;;;;;5012213;28;20036;-85
2021/09/26 08:21:31;;;;;;;29.35;22.13;;;17.90;99.90;;;;;;5002231;28;20065;-85
2021/09/26 08:23:56;;;;;;;24.55;21.77;;;18.00;99.90;;;;;;5007729;28;20120;-85
2021/09/26 08:26:23;;;;;;;27.27;22.60;;;18.00;99.90;;;;;;5013504;28;20046;-85
2021/09/26 08:28:48;;;;;;;27.85;22.67;;;18.10;99.90;;;;;;5015284;28;20018;-85
2021/09/26 08:31:14;;;;;;;28.20;22.02;;;18.30;99.90;;;;;;5011041;28;20429;-84
2021/09/26 08:33:40;;;;;;;27.10;21.85;;;18.30;99.90;;;;;;5012077;28;20057;-84
2021/09/26 08:36:05;;;;;;;22.17;19.67;;;18.40;99.90;;;;;;5009825;28;20481;-84
2021/09/26 08:38:31;;;;;;;25.77;20.40;;;18.60;99.90;;;;;;5010579;28;20478;-84
2021/09/26 08:40:58;;;;;;;25.17;21.52;;;18.70;99.90;;;;;;5013372;28;20030;-84
2021/09/26 08:43:24;;;;;;;24.63;19.92;;;18.80;99.90;;;;;;5007468;28;20383;-84
2021/09/26 08:45:49;;;;;;;30.05;20.15;;;18.90;99.90;;;;;;5013569;28;20160;-84
2021/09/26 08:48:15;;;;;;;25.17;18.02;;;19.10;99.90;;;;;;5010844;28;20386;-84
2021/09/26 08:50:42;;;;;;;21.85;17.63;;;19.20;99.90;;;;;;5007149;28;20034;-84
2021/09/26 08:53:08;;;;;;;19.83;17.05;;;19.30;99.90;;;;;;5008088;28;20029;-83
2021/09/26 08:55:35;;;;;;;20.08;16.00;;;19.40;99.90;;;;;;5009383;28;20034;-84
2021/09/26 08:58:01;;;;;;;20.33;17.95;;;19.50;99.90;;;;;;5011617;28;20026;-84
2021/09/26 09:00:27;;;;;;;18.60;16.55;;;19.60;99.90;;;;;;5010363;28;20025;-84
2021/09/26 09:02:53;;;;;;;20.45;17.58;;;19.60;99.90;;;;;;5014694;28;20030;-95
2021/09/26 09:05:33;;;;;;;21.60;17.58;;;19.70;99.90;;;;;;5017893;28;20472;-95
2021/09/26 09:08:11;;;;;;;21.90;18.40;;;19.80;99.90;;;;;;5020048;28;20026;-96
2021/09/26 09:11:03;;;;;;;23.92;18.27;;;19.80;99.90;;;;;;5015935;28;20022;-96
2021/09/26 09:13:41;;;;;;;24.65;18.25;;;19.80;99.90;;;;;;5016349;28;20073;-95
2021/09/26 09:16:08;;;;;;;19.85;17.73;;;19.80;99.90;;;;;;5019234;28;20041;-95
2021/09/26 09:18:43;;;;;;;18.95;16.95;;;19.80;99.90;;;;;;5016393;28;20470;-95
2021/09/26 09:21:26;;;;;;;21.42;17.83;;;19.90;99.90;;;;;;5017244;28;20030;-95
2021/09/26 09:23:54;;;;;;;21.85;17.17;;;20.10;99.90;;;;;;5016651;28;20509;-95
2021/09/26 09:26:37;;;;;;;22.13;17.85;;;20.20;99.90;;;;;;5017347;28;20052;-96
2021/09/26 09:29:04;;;;;;;20.08;16.75;;;20.20;99.90;;;;;;5016603;28;20085;-95
2021/09/26 09:31:30;;;;;;;21.90;17.48;;;20.20;99.90;;;;;;5014343;28;20030;-95
2021/09/26 09:33:55;;;;;;;21.48;18.35;;;20.20;99.90;;;;;;5018615;28;20030;-95
2021/09/26 09:36:23;;;;;;;23.55;18.77;;;20.30;99.90;;;;;;5017113;28;20034;-96
2021/09/26 09:38:53;;;;;;;21.13;18.05;;;20.30;99.90;;;;;;5017789;28;20018;-96
2021/09/26 09:41:40;;;;;;;20.27;18.17;;;20.40;99.90;;;;;;5001816;28;20045;-96
2021/09/26 09:44:08;;;;;;;22.48;18.02;;;20.60;99.90;;;;;;5014674;28;20034;-95
2021/09/26 09:46:42;;;;;;;21.35;17.17;;;20.80;99.90;;;;;;5014324;28;20025;-96
2021/09/26 09:49:19;;;;;;;20.48;16.45;;;20.90;99.90;;;;;;5016985;28;20021;-94
2021/09/26 09:51:55;;;;;;;22.80;18.20;;;21.00;99.90;;;;;;5012132;28;20022;-96
2021/09/26 09:54:32;;;;;;;19.73;15.70;;;21.10;99.90;;;;;;5015533;28;20026;-95
2021/09/26 09:57:16;;;;;;;19.85;17.17;;;21.20;99.90;;;;;;5016283;28;20030;-96
2021/09/26 09:59:45;;;;;;;18.73;16.45;;;21.40;99.90;;;;;;5016154;28;20052;-93
2021/09/26 10:02:11;;;;;;;21.08;17.67;;;21.40;99.90;;;;;;5016685;28;20481;-94
2021/09/26 10:04:44;;;;;;;18.90;16.40;;;21.40;99.90;;;;;;5015551;28;20119;-94
2021/09/26 10:07:20;;;;;;;19.00;16.38;;;21.50;99.90;;;;;;5021562;28;20034;-95
2021/09/26 10:09:46;;;;;;;20.13;16.15;;;21.60;99.90;;;;;;5009781;28;20482;-93
2021/09/26 10:12:22;;;;;;;18.85;16.45;;;21.50;99.90;;;;;;5021137;28;20052;-94
2021/09/26 10:14:51;;;;;;;18.90;16.90;;;21.50;99.90;;;;;;5013958;28;20057;-94
2021/09/26 10:17:17;;;;;;;20.67;15.93;;;21.40;99.90;;;;;;5017432;28;20049;-94
2021/09/26 10:19:45;;;;;;;17.50;15.65;;;21.40;99.90;;;;;;5019265;28;20058;-96
2021/09/26 10:22:15;;;;;;;18.50;16.60;;;21.50;99.90;;;;;;5020086;28;20030;-94
2021/09/26 10:24:44;;;;;;;19.98;16.20;;;21.50;99.90;;;;;;5019864;28;20034;-95
2021/09/26 10:27:11;;;;;;;17.95;15.52;;;21.60;99.90;;;;;;5013564;28;20521;-95
2021/09/26 10:29:39;;;;;;;16.95;15.15;;;21.70;99.90;;;;;;5018255;28;20018;-96
2021/09/26 10:32:07;;;;;;;16.02;14.40;;;21.90;99.90;;;;;;5016475;28;20022;-96
2021/09/26 10:34:33;;;;;;;17.05;15.25;;;22.00;99.80;;;;;;5018965;28;20057;-93
2021/09/26 10:37:03;;;;;;;18.25;16.05;;;22.00;99.30;;;;;;5018368;28;20090;-93
2021/09/26 10:39:29;;;;;;;17.92;16.02;;;22.00;99.10;;;;;;5020836;28;20030;-92
2021/09/26 10:42:22;;;;;;;19.02;15.95;;;21.80;99.00;;;;;;5018098;28;20418;-95
2021/09/26 10:44:49;;;;;;;18.58;15.05;;;21.80;99.10;;;;;;5014609;28;20506;-93
2021/09/26 10:47:23;;;;;;;17.08;15.38;;;21.80;99.20;;;;;;5015218;28;20069;-94
2021/09/26 10:50:14;;;;;;;17.42;15.60;;;21.90;99.20;;;;;;5015143;28;20026;-96
2021/09/26 10:52:45;;;;;;;16.65;14.82;;;22.00;98.90;;;;;;5014095;28;20077;-94
2021/09/26 10:55:23;;;;;;;15.60;13.77;;;22.00;98.50;;;;;;5014489;28;20125;-94
2021/09/26 10:58:07;;;;;;;14.95;13.45;;;22.20;98.30;;;;;;5016038;28;20026;-94
2021/09/26 11:00:38;;;;;;;15.43;13.93;;;22.30;98.30;;;;;;5036362;28;20478;-95
2021/09/26 11:03:16;;;;;;;15.25;13.65;;;22.40;98.20;;;;;;5003090;28;20030;-94
2021/09/26 11:05:46;;;;;;;15.55;13.90;;;22.40;97.90;;;;;;5017117;28;20049;-95
2021/09/26 11:08:41;;;;;;;13.50;12.20;;;22.50;97.50;;;;;;5001888;28;20121;-94
2021/09/26 11:11:08;;;;;;;13.88;12.48;;;22.60;97.20;;;;;;5015799;28;20061;-94
2021/09/26 11:13:36;;;;;;;14.93;13.32;;;22.70;97.10;;;;;;5015837;28;20653;-93
2021/09/26 11:16:13;;;;;;;17.40;13.63;;;22.70;96.70;;;;;;5025772;28;20030;-96
2021/09/26 11:18:47;;;;;;;15.10;13.50;;;22.70;96.60;;;;;;5029220;28;20490;-96
2021/09/26 11:21:35;;;;;;;15.23;13.63;;;22.70;96.60;;;;;;5019448;28;20435;-84
2021/09/26 11:24:02;;;;;;;16.00;13.00;;;22.70;96.60;;;;;;5013079;28;20037;-85
2021/09/26 11:26:59;;;;;;;14.30;12.82;;;22.70;96.50;;;;;;5012774;28;20113;-84
2021/09/26 11:29:27;;;;;;;16.42;12.95;;;22.80;96.10;;;;;;5013039;28;20613;-84
2021/09/26 11:31:53;;;;;;;16.30;12.60;;;22.70;96.00;;;;;;5012610;28;20033;-84
2021/09/26 11:34:35;;;;;;;15.45;13.60;;;22.60;95.90;;;;;;5009044;28;20044;-85
2021/09/26 11:37:00;;;;;;;14.63;13.13;;;22.60;95.90;;;;;;5010313;28;20031;-84
2021/09/26 11:39:28;;;;;;;16.15;14.30;;;22.70;95.90;;;;;;5014053;28;20489;-84
2021/09/26 11:41:54;;;;;;;14.90;13.30;;;22.70;95.70;;;;;;5012668;28;20057;-84
2021/09/26 11:44:20;;;;;;;17.10;13.13;;;22.80;95.60;;;;;;5014095;28;20025;-84
2021/09/26 11:46:51;;;;;;;14.13;12.13;;;22.90;95.40;;;;;;5015643;28;20048;-85
2021/09/26 11:49:16;;;;;;;14.43;12.70;;;23.00;95.00;;;;;;5014462;28;20022;-84
2021/09/26 11:51:42;;;;;;;15.05;13.40;;;23.20;94.80;;;;;;5014335;28;20044;-85
2021/09/26 11:54:08;;;;;;;13.65;11.52;;;23.30;94.80;;;;;;5010928;28;20519;-84
2021/09/26 11:56:42;;;;;;;15.38;11.68;;;23.60;94.60;;;;;;5012141;28;20022;-85
2021/09/26 11:59:14;;;;;;;13.07;11.20;;;23.80;94.00;;;;;;5014255;28;20410;-85
2021/09/26 12:01:41;;;;;;;;;;;24.00;93.60;;;;;;5015055;28;20022;-84
2021/09/26 12:04:14;;;;;;;13.20;11.75;;;24.00;93.60;;;;;;5013459;28;19909;-85
2021/09/26 12:06:46;;;;;;;15.18;12.27;;;24.00;93.00;;;;;;5042348;28;20041;-85
2021/09/26 12:09:32;;;;;;;14.48;12.23;;;23.90;93.00;;;;;;5028788;28;20066;-85
2021/09/26 12:11:57;;;;;;;14.00;12.30;;;24.00;93.00;;;;;;5014502;28;20100;-84
2021/09/26 12:14:29;;;;;;;14.63;12.25;;;24.10;92.70;;;;;;5014006;28;20446;-85
2021/09/26 12:16:55;;;;;;;15.00;13.50;;;24.10;92.50;;;;;;5013971;28;20029;-85
2021/09/26 12:19:20;;;;;;;18.73;13.20;;;23.90;92.70;;;;;;5014032;28;20097;-85
2021/09/26 12:21:46;;;;;;;15.55;11.93;;;24.00;92.60;;;;;;5014113;28;20034;-85
2021/09/26 12:24:15;;;;;;;11.88;10.65;;;24.10;92.50;;;;;;5013533;28;20034;-85
2021/09/26 12:26:46;;;;;;;11.88;10.52;;;24.30;92.30;;;;;;5013601;28;20048;-85
2021/09/26 12:29:20;;;;;;;13.93;12.15;;;24.40;91.90;;;;;;4998289;28;20402;-85
2021/09/26 12:31:51;;;;;;;13.25;11.27;;;24.40;91.70;;;;;;5009849;28;20021;-86
2021/09/26 12:34:35;;;;;;;13.73;11.63;;;24.50;91.40;;;;;;5013737;28;20437;-85
2021/09/26 12:37:02;;;;;;;12.18;11.00;;;24.60;91.00;;;;;;5028890;28;20026;-86